Time,TemperatureF,DewpointF,PressureIn,WindDirection,WindDirectionDegrees,WindSpeedMPH,WindSpeedGustMPH,Humidity,HourlyPrecipIn,Conditions,Clouds,dailyrainin,SolarRadiationWatts/m^2,SoftwareType,DateUTC
2013-02-08 00:00:00,23.0,17.0,-100.00,South,187,2.0,3.0,77,-99.99,,,-99.99,-0.200000,,2013-02-08 08:00:00,
2013-02-08 00:52:00,23.0,17.0,-100.00,South,187,2.0,3.0,77,-99.99,,,-99.99,-0.200000,,2013-02-08 08:52:00,
2013-02-08 01:00:00,23.0,17.0,-100.00,South,169,2.0,4.0,77,-99.99,,,-99.99,-0.200000,,2013-02-08 09:00:00,
2013-02-08 01:52:00,23.0,17.0,-100.00,South,169,2.0,4.0,77,-99.99,,,-99.99,-0.200000,,2013-02-08 09:52:00,
2013-02-08 02:00:00,23.0,16.0,-100.00,SW,216,3.0,4.0,73,-99.99,,,-99.99,-0.200000,,2013-02-08 10:00:00,
2013-02-08 03:00:00,22.0,14.0,-100.00,South,187,2.0,4.0,70,-99.99,,,-99.99,0.200000,,2013-02-08 11:00:00,
2013-02-08 03:52:00,22.0,14.0,-100.00,South,187,2.0,4.0,70,-99.99,,,-99.99,0.200000,,2013-02-08 11:52:00,
2013-02-08 04:00:00,23.0,14.0,-100.00,WNW,299,2.0,4.0,67,-99.99,,,-99.99,0.200000,,2013-02-08 12:00:00,
2013-02-08 04:52:00,23.0,14.0,-100.00,WNW,299,2.0,4.0,67,-99.99,,,-99.99,0.200000,,2013-02-08 12:52:00,
2013-02-08 05:00:00,22.0,13.0,-100.00,SW,236,2.0,4.0,68,-99.99,,,0.00,-0.200000,,2013-02-08 13:00:00,
2013-02-08 05:52:00,22.0,13.0,-100.00,SW,236,2.0,4.0,68,-99.99,,,0.00,-0.200000,,2013-02-08 13:52:00,
2013-02-08 06:00:00,23.0,12.0,-100.00,SW,225,2.0,4.0,64,-99.99,,,0.00,-0.200000,,2013-02-08 14:00:00,
2013-02-08 06:52:00,23.0,12.0,-100.00,SW,225,2.0,4.0,64,-99.99,,,0.00,-0.200000,,2013-02-08 14:52:00,
2013-02-08 07:00:00,22.0,10.0,-100.00,SSW,209,2.0,4.0,59,-99.99,,,-99.99,-0.200000,,2013-02-08 15:00:00,
2013-02-08 07:52:00,22.0,10.0,-100.00,SSW,209,2.0,4.0,59,-99.99,,,-99.99,-0.200000,,2013-02-08 15:52:00,
2013-02-08 08:00:00,23.0,11.0,-100.00,SW,236,2.0,4.0,59,-99.99,,,0.00,14.700000,,2013-02-08 16:00:00,
2013-02-08 08:52:00,23.0,11.0,-100.00,SW,236,2.0,4.0,59,-99.99,,,0.00,14.700000,,2013-02-08 16:52:00,
2013-02-08 09:00:00,26.0,12.0,-100.00,WSW,251,2.0,3.0,55,-99.99,,,0.00,62.599998,,2013-02-08 17:00:00,
2013-02-08 09:53:00,26.0,12.0,-100.00,WSW,251,2.0,3.0,55,-99.99,,,0.00,62.599998,,2013-02-08 17:53:00,
2013-02-08 10:00:00,29.0,12.0,-100.00,SW,226,3.0,4.0,49,-99.99,,,0.00,173.399994,,2013-02-08 18:00:00,
2013-02-08 10:52:00,29.0,12.0,-100.00,SW,226,3.0,4.0,49,-99.99,,,0.00,173.399994,,2013-02-08 18:52:00,
2013-02-08 11:00:00,31.0,12.0,-100.00,NNW,337,3.0,4.0,43,-99.99,,,0.00,421.799988,,2013-02-08 19:00:00,
2013-02-08 11:52:00,31.0,12.0,-100.00,NNW,337,3.0,4.0,43,-99.99,,,0.00,421.799988,,2013-02-08 19:52:00,
2013-02-08 12:00:00,32.0,11.0,-100.00,WSW,249,3.0,5.0,41,-99.99,,,0.00,507.500000,,2013-02-08 20:00:00,
2013-02-08 12:52:00,32.0,11.0,-100.00,WSW,249,3.0,5.0,41,-99.99,,,0.00,507.500000,,2013-02-08 20:52:00,
2013-02-08 13:00:00,32.0,9.0,-100.00,WSW,246,3.0,5.0,38,-99.99,,,0.00,480.700012,,2013-02-08 21:00:00,
2013-02-08 13:52:00,32.0,9.0,-100.00,WSW,246,3.0,5.0,38,-99.99,,,0.00,480.700012,,2013-02-08 21:52:00,
2013-02-08 14:00:00,32.0,9.0,-100.00,WSW,257,3.0,6.0,37,-99.99,,,0.00,220.399994,,2013-02-08 22:00:00,
2013-02-08 14:52:00,32.0,9.0,-100.00,WSW,257,3.0,6.0,37,-99.99,,,0.00,220.399994,,2013-02-08 22:52:00,
2013-02-08 15:00:00,32.0,9.0,-100.00,South,177,3.0,5.0,37,-99.99,,,0.00,369.500000,,2013-02-08 23:00:00,
2013-02-08 15:52:00,32.0,9.0,-100.00,South,177,3.0,5.0,37,-99.99,,,0.00,369.500000,,2013-02-08 23:52:00,
2013-02-08 16:00:00,31.0,4.0,-100.00,WSW,244,2.0,4.0,31,-99.99,,,0.00,209.500000,,2013-02-09 00:00:00,
2013-02-08 16:52:00,31.0,4.0,-100.00,WSW,244,2.0,4.0,31,-99.99,,,0.00,209.500000,,2013-02-09 00:52:00,
2013-02-08 17:00:00,29.0,1.0,-100.00,SSE,164,1.0,2.0,30,-99.99,,,0.00,27.000000,,2013-02-09 01:00:00,
2013-02-08 17:52:00,29.0,1.0,-100.00,SSE,164,1.0,2.0,30,-99.99,,,0.00,27.000000,,2013-02-09 01:52:00,
2013-02-08 18:00:00,27.0,7.0,-100.00,ESE,112,2.0,3.0,42,-99.99,,,0.00,1.500000,,2013-02-09 02:00:00,
2013-02-08 18:52:00,27.0,7.0,-100.00,ESE,112,2.0,3.0,42,-99.99,,,0.00,1.500000,,2013-02-09 02:52:00,
2013-02-08 19:00:00,27.0,13.0,-100.00,South,189,2.0,4.0,54,-99.99,,,0.00,-0.200000,,2013-02-09 03:00:00,
2013-02-08 19:53:00,27.0,13.0,-100.00,South,189,2.0,4.0,54,-99.99,,,0.00,-0.200000,,2013-02-09 03:53:00,
2013-02-08 20:00:00,27.0,14.0,-100.00,SW,219,3.0,4.0,56,-99.99,,,0.00,-0.200000,,2013-02-09 04:00:00,
2013-02-08 20:52:00,27.0,14.0,-100.00,SW,219,3.0,4.0,56,-99.99,,,0.00,-0.200000,,2013-02-09 04:52:00,
2013-02-08 21:00:00,26.0,14.0,-100.00,SSE,158,3.0,6.0,59,-99.99,,,0.00,-0.200000,,2013-02-09 05:00:00,
2013-02-08 21:52:00,26.0,14.0,-100.00,SSE,158,3.0,6.0,59,-99.99,,,0.00,-0.200000,,2013-02-09 05:52:00,
2013-02-08 22:00:00,27.0,14.0,-100.00,SSW,196,2.0,4.0,59,-99.99,,,0.00,-0.200000,,2013-02-09 06:00:00,
2013-02-08 22:52:00,27.0,14.0,-100.00,SSW,196,2.0,4.0,59,-99.99,,,0.00,-0.200000,,2013-02-09 06:52:00,
2013-02-08 23:00:00,27.0,14.0,-100.00,SSW,213,2.0,4.0,56,-99.99,,,0.00,-0.200000,,2013-02-09 07:00:00,
2013-02-08 23:52:00,27.0,14.0,-100.00,SSW,213,2.0,4.0,56,-99.99,,,0.00,-0.200000,,2013-02-09 07:52:00,